Time;durP1;ratioP1;P1;durP2;ratioP2;P2;SDS_P1;SDS_P2;PMS_P1;PMS_P2;Temp;Humidity;BMP_temperature;BMP_pressure;BME280_temperature;BME280_humidity;BME280_pressure;Samples;Min_cycle;Max_cycle;Signal;HPM_P1;HPM_P2
2021/08/06 00:02:25;;;;;;;15.50;8.00;;;;;;;30.42;63.24;100671.09;1691920;83;21124;-48
2021/08/06 00:04:52;;;;;;;12.25;8.18;;;;;;;30.42;63.20;100675.97;1691872;83;21191;-48
2021/08/06 00:07:20;;;;;;;13.65;8.15;;;;;;;30.44;63.12;100679.83;1692292;83;20990;-49
2021/08/06 00:09:47;;;;;;;13.45;8.80;;;;;;;30.44;63.01;100690.56;1685769;84;20977;-48
2021/08/06 00:12:15;;;;;;;13.85;8.93;;;;;;;30.45;63.00;100699.83;1666957;84;21112;-48
2021/08/06 00:14:44;;;;;;;13.15;8.85;;;;;;;30.46;63.06;100703.33;1690462;83;21086;-48
2021/08/06 00:17:10;;;;;;;17.85;9.03;;;;;;;30.48;63.10;100706.69;1692918;83;21045;-47
2021/08/06 00:19:37;;;;;;;17.90;10.38;;;;;;;30.49;63.02;100713.27;1666379;85;21608;-50
2021/08/06 00:22:04;;;;;;;17.23;9.88;;;;;;;30.51;62.96;100706.38;1677495;85;21058;-48
2021/08/06 00:24:30;;;;;;;14.07;9.48;;;;;;;30.51;62.88;100699.17;1672686;84;21040;-48
2021/08/06 00:26:57;;;;;;;13.40;9.53;;;;;;;30.52;62.85;100700.84;1717183;82;22464;-48
2021/08/06 00:29:24;;;;;;;13.58;8.55;;;;;;;30.53;62.78;100698.51;1732096;82;21038;-48
2021/08/06 00:31:51;;;;;;;15.75;9.35;;;;;;;30.54;62.84;100694.80;1686261;84;21082;-48
2021/08/06 00:34:22;;;;;;;18.10;10.08;;;;;;;30.56;62.83;100685.77;1733798;82;21035;-48
2021/08/06 00:36:50;;;;;;;14.83;9.48;;;;;;;30.57;62.87;100683.39;1732059;82;20985;-48
2021/08/06 00:39:17;;;;;;;13.20;9.23;;;;;;;30.57;62.89;100678.02;1692960;83;21499;-48
2021/08/06 00:41:44;;;;;;;16.85;8.88;;;;;;;30.57;62.90;100665.45;1694529;84;20998;-48
2021/08/06 00:44:14;;;;;;;17.05;8.73;;;;;;;30.58;62.94;100654.21;1697334;83;21518;-48
2021/08/06 00:46:42;;;;;;;15.05;8.98;;;;;;;30.59;62.86;100643.79;1691246;83;21547;-48
2021/08/06 00:49:09;;;;;;;13.72;9.18;;;;;;;30.58;62.84;100632.23;1662586;85;21032;-48
2021/08/06 00:51:37;;;;;;;8.88;7.95;;;;;;;30.58;62.79;100609.89;1668595;84;21018;-48
2021/08/06 00:54:06;;;;;;;11.88;8.70;;;;;;;30.59;62.89;100604.35;1675347;84;21101;-49
2021/08/06 00:56:34;;;;;;;13.60;8.93;;;;;;;30.57;63.07;100596.96;1673225;84;21499;-48
2021/08/06 00:59:03;;;;;;;15.85;8.43;;;;;;;30.55;63.19;100603.00;1689819;83;21025;-48
2021/08/06 01:01:30;;;;;;;12.18;8.45;;;;;;;30.57;63.15;100620.28;1700624;83;21105;-48
2021/08/06 01:04:11;;;;;;;13.58;8.70;;;;;;;30.54;63.17;100635.72;1696965;83;21617;-49
2021/08/06 01:06:54;;;;;;;19.45;9.35;;;;;;;30.56;63.27;100641.45;1641370;86;21125;-47
2021/08/06 01:09:37;;;;;;;16.70;9.28;;;;;;;30.56;63.27;100642.80;1644112;86;21089;-49
2021/08/06 01:12:09;;;;;;;18.65;9.85;;;;;;;30.56;63.34;100642.30;1639448;86;21030;-49
2021/08/06 01:14:39;;;;;;;19.48;10.43;;;;;;;30.55;63.38;100633.89;1646005;86;21130;-48
2021/08/06 01:17:07;;;;;;;20.88;10.93;;;;;;;30.56;63.43;100625.34;1615303;88;21084;-49
2021/08/06 01:20:00;;;;;;;14.47;9.25;;;;;;;30.56;63.48;100625.34;1615497;88;21021;-49
2021/08/06 01:22:54;;;;;;;15.93;10.15;;;;;;;30.55;63.53;100623.14;1592275;88;21100;-50
2021/08/06 01:25:46;;;;;;;19.67;10.85;;;;;;;30.54;63.58;100626.33;1611233;88;21591;-49
2021/08/06 01:28:28;;;;;;;21.77;10.45;;;;;;;30.53;63.73;100614.41;1615467;88;21087;-49
2021/08/06 01:30:57;;;;;;;17.02;9.98;;;;;;;30.53;63.73;100605.86;1594153;88;21000;-49
2021/08/06 01:33:23;;;;;;;19.55;9.65;;;;;;;30.53;63.80;100591.59;1615054;88;21488;-50
2021/08/06 01:35:52;;;;;;;16.57;9.68;;;;;;;30.53;63.83;100584.88;1615893;88;21102;-49
2021/08/06 01:38:19;;;;;;;13.95;9.30;;;;;;;30.53;63.81;100573.64;1601487;88;21043;-49
2021/08/06 01:41:29;;;;;;;18.70;9.70;;;;;;;30.53;63.72;100574.98;1618092;88;21235;-50
2021/08/06 01:44:25;;;;;;;14.68;9.55;;;;;;;30.52;63.75;100562.54;1604136;88;21043;-49
2021/08/06 01:47:15;;;;;;;16.23;9.80;;;;;;;30.51;63.88;100564.91;1620149;87;21641;-49
2021/08/06 01:49:48;;;;;;;13.95;9.25;;;;;;;30.51;63.94;100581.02;1614538;88;21582;-49
2021/08/06 01:52:21;;;;;;;18.25;10.03;;;;;;;30.50;64.03;100594.62;1543958;91;21081;-48
2021/08/06 01:54:49;;;;;;;19.27;10.50;;;;;;;30.50;64.08;100591.41;1544277;92;21101;-49
2021/08/06 01:57:16;;;;;;;14.50;10.05;;;;;;;30.49;64.10;100596.45;1543789;92;21153;-49
2021/08/06 01:59:44;;;;;;;18.30;10.60;;;;;;;30.48;64.18;100584.02;1542366;92;21065;-49
2021/08/06 02:02:11;;;;;;;22.05;10.60;;;;;;;30.49;64.19;100577.66;1495142;94;21588;-49
2021/08/06 02:04:38;;;;;;;17.98;10.45;;;;;;;30.49;64.21;100566.92;1558321;91;21081;-49
2021/08/06 02:07:07;;;;;;;14.80;9.63;;;;;;;30.51;64.23;100547.95;1463026;97;21122;-49
2021/08/06 02:09:38;;;;;;;16.07;9.83;;;;;;;30.50;64.31;100535.02;1480993;95;21118;-48
2021/08/06 02:12:07;;;;;;;19.17;10.28;;;;;;;30.48;64.43;100533.00;1492998;94;21139;-49
2021/08/06 02:14:43;;;;;;;17.67;10.05;;;;;;;30.46;64.45;100532.33;1487968;95;21675;-48
2021/08/06 02:17:11;;;;;;;15.63;8.90;;;;;;;30.45;64.53;100532.01;1482001;95;21118;-48
2021/08/06 02:19:42;;;;;;;14.67;9.47;;;;;;;30.43;64.64;100542.08;1453048;97;21137;-48
2021/08/06 02:22:10;;;;;;;18.10;10.65;;;;;;;30.42;64.70;100548.44;1461481;96;21468;-49
2021/08/06 02:24:39;;;;;;;18.82;10.93;;;;;;;30.42;64.62;100540.38;1470789;97;21113;-49
2021/08/06 02:27:09;;;;;;;17.85;10.25;;;;;;;30.44;64.51;100538.37;1482016;96;21113;-50
2021/08/06 02:29:38;;;;;;;18.07;10.70;;;;;;;30.45;64.44;100538.72;1456813;97;21137;-49
2021/08/06 02:32:06;;;;;;;20.32;10.13;;;;;;;30.45;64.30;100533.35;1457971;97;21121;-49
2021/08/06 02:34:33;;;;;;;17.82;10.35;;;;;;;30.46;64.25;100536.85;1468504;97;21118;-48
2021/08/06 02:37:00;;;;;;;14.55;10.23;;;;;;;30.46;64.11;100530.98;1474455;96;21164;-49
2021/08/06 02:39:28;;;;;;;17.82;10.48;;;;;;;30.45;64.01;100522.61;1471616;96;21616;-48
2021/08/06 02:41:56;;;;;;;17.73;10.72;;;;;;;30.45;64.02;100507.84;1479106;96;21108;-49
2021/08/06 02:44:23;;;;;;;23.55;11.12;;;;;;;30.45;64.04;100501.63;1489706;94;21095;-49
2021/08/06 02:46:50;;;;;;;16.90;10.55;;;;;;;30.44;64.01;100502.62;1476530;96;21150;-49
2021/08/06 02:49:18;;;;;;;14.75;9.80;;;;;;;30.42;64.05;100501.45;1506416;93;21095;-50
2021/08/06 02:51:44;;;;;;;13.03;9.80;;;;;;;30.41;63.93;100497.10;1537556;92;21216;-50
2021/08/06 02:54:11;;;;;;;11.93;9.48;;;;;;;30.42;63.78;100481.80;1552745;91;21120;-49
2021/08/06 02:56:39;;;;;;;14.30;10.05;;;;;;;30.42;63.76;100475.94;1556400;92;21088;-50
2021/08/06 02:59:06;;;;;;;15.63;10.05;;;;;;;30.41;63.92;100472.94;1553137;91;21088;-48
2021/08/06 03:01:35;;;;;;;17.02;10.35;;;;;;;30.41;63.89;100474.28;1553402;91;21829;-49
2021/08/06 03:04:02;;;;;;;16.75;9.83;;;;;;;30.41;63.92;100460.02;1575529;88;21126;-49
2021/08/06 03:06:29;;;;;;;16.25;10.78;;;;;;;30.40;63.93;100448.92;1596926;88;21655;-49
2021/08/06 03:08:58;;;;;;;14.38;9.93;;;;;;;30.39;63.85;100450.79;1602276;88;21129;-49
2021/08/06 03:11:27;;;;;;;12.78;9.13;;;;;;;30.38;63.87;100454.47;1661732;84;21702;-49
2021/08/06 03:13:55;;;;;;;15.55;10.00;;;;;;;30.38;63.80;100454.47;1658099;86;21590;-49
2021/08/06 03:16:22;;;;;;;11.48;9.53;;;;;;;30.38;63.78;100452.27;1654630;85;21018;-49
2021/08/06 03:18:51;;;;;;;14.43;9.60;;;;;;;30.38;63.77;100451.78;1666807;85;21113;-49
2021/08/06 03:21:19;;;;;;;16.75;10.75;;;;;;;30.40;63.75;100460.50;1657023;85;21033;-49
2021/08/06 03:23:47;;;;;;;14.25;9.80;;;;;;;30.40;63.76;100464.53;1672116;84;21509;-50
2021/08/06 03:26:14;;;;;;;14.65;10.88;;;;;;;30.41;63.75;100458.67;1663816;85;21076;-49
2021/08/06 03:28:43;;;;;;;15.98;13.98;;;;;;;30.42;63.70;100443.72;1654460;84;21092;-49
2021/08/06 03:31:09;;;;;;;24.02;21.30;;;;;;;30.42;63.78;100439.70;1718441;82;21014;-49
2021/08/06 03:33:36;;;;;;;20.00;12.60;;;;;;;30.43;63.82;100441.39;1732846;82;21562;-48
2021/08/06 03:36:05;;;;;;;21.20;15.65;;;;;;;30.44;63.75;100436.84;1689970;84;21023;-50
2021/08/06 03:38:32;;;;;;;19.07;12.75;;;;;;;30.46;63.82;100426.27;1690802;84;21054;-49
2021/08/06 03:40:59;;;;;;;13.95;11.60;;;;;;;30.49;63.86;100434.00;1693533;83;21524;-48
2021/08/06 03:43:27;;;;;;;15.95;10.98;;;;;;;30.56;63.91;100434.67;1687697;84;21034;-49
2021/08/06 03:45:54;;;;;;;17.98;11.95;;;;;;;30.62;63.79;100433.99;1676969;84;21078;-49
2021/08/06 03:48:21;;;;;;;16.37;11.63;;;;;;;30.70;63.65;100429.95;1670207;85;21102;-49
2021/08/06 03:50:48;;;;;;;18.48;12.20;;;;;;;30.76;63.34;100419.86;1639779;85;21514;-49
2021/08/06 03:53:15;;;;;;;19.17;14.03;;;;;;;30.83;63.22;100415.50;1664822;84;21031;-48
2021/08/06 03:55:44;;;;;;;39.03;23.75;;;;;;;30.91;62.76;100406.11;1661023;86;21025;-48
2021/08/06 03:58:12;;;;;;;26.90;20.45;;;;;;;30.97;62.38;100406.77;1665951;85;21038;-49
2021/08/06 04:00:39;;;;;;;19.10;11.97;;;;;;;31.01;62.13;100406.75;1691498;83;21050;-49
2021/08/06 04:03:07;;;;;;;14.40;8.45;;;;;;;31.03;61.92;100395.32;1651270;84;21034;-49
2021/08/06 04:05:36;;;;;;;14.28;8.83;;;;;;;31.04;61.66;100394.30;1676050;84;21550;-49
2021/08/06 04:08:08;;;;;;;11.12;7.50;;;;;;;31.05;61.55;100390.61;1679422;85;20995;-49
2021/08/06 04:10:38;;;;;;;23.73;8.63;;;;;;;31.06;61.48;100390.92;1677105;85;21541;-49
2021/08/06 04:13:07;;;;;;;10.95;8.73;;;;;;;31.05;61.46;100393.30;1676070;84;21058;-49
2021/08/06 04:15:35;;;;;;;8.73;7.70;;;;;;;31.05;61.45;100391.95;1676425;85;21548;-50
2021/08/06 04:18:02;;;;;;;11.75;8.33;;;;;;;31.05;61.37;100390.61;1679062;85;21016;-49
2021/08/06 04:20:29;;;;;;;15.68;7.97;;;;;;;31.04;61.20;100399.67;1674844;84;21054;-48
2021/08/06 04:22:56;;;;;;;16.62;7.92;;;;;;;31.04;61.10;100396.98;1678470;83;21535;-48
2021/08/06 04:25:23;;;;;;;11.22;7.80;;;;;;;31.05;61.05;100401.36;1678925;84;21026;-48
2021/08/06 04:27:51;;;;;;;13.30;7.80;;;;;;;31.06;61.01;100400.33;1684584;84;21098;-48
2021/08/06 04:30:18;;;;;;;15.00;7.70;;;;;;;31.07;60.94;100402.02;1680716;84;21019;-48
2021/08/06 04:32:45;;;;;;;14.07;7.53;;;;;;;31.09;60.93;100413.44;1672626;84;21065;-48
2021/08/06 04:35:12;;;;;;;20.02;8.20;;;;;;;31.09;60.97;100415.63;1671630;84;21005;-49
2021/08/06 04:37:54;;;;;;;11.38;7.67;;;;;;;31.11;60.94;100419.48;1675757;85;21031;-48
2021/08/06 04:40:26;;;;;;;19.65;8.28;;;;;;;31.11;60.80;100411.41;1730747;82;20994;-48
2021/08/06 04:42:54;;;;;;;18.10;8.18;;;;;;;31.11;60.75;100412.27;1726800;82;21085;-49
2021/08/06 04:45:22;;;;;;;12.40;7.42;;;;;;;31.13;60.77;100414.77;1725630;81;21009;-48
2021/08/06 04:47:51;;;;;;;13.20;8.80;;;;;;;31.14;60.84;100423.18;1726745;82;21073;-49
2021/08/06 04:50:21;;;;;;;13.80;7.42;;;;;;;31.13;61.01;100422.83;1689187;84;21030;-49
2021/08/06 04:52:48;;;;;;;14.00;8.40;;;;;;;31.15;61.03;100428.88;1671592;85;21059;-49
2021/08/06 04:55:17;;;;;;;16.10;11.90;;;;;;;31.17;61.03;100436.25;1671251;85;21041;-49
2021/08/06 04:57:45;;;;;;;21.73;14.10;;;;;;;31.18;61.03;100433.91;1644429;86;21042;-49
2021/08/06 05:00:15;;;;;;;16.05;11.05;;;;;;;31.19;61.12;100430.20;1638306;86;21530;-49
2021/08/06 05:02:42;;;;;;;14.80;10.53;;;;;;;31.20;61.17;100437.27;1632183;86;21578;-49
2021/08/06 05:05:10;;;;;;;13.25;8.15;;;;;;;31.19;61.24;100436.42;1672586;85;21144;-49
2021/08/06 05:07:37;;;;;;;18.92;8.65;;;;;;;31.19;61.36;100446.33;1678499;85;21053;-50
2021/08/06 05:10:06;;;;;;;11.75;7.53;;;;;;;31.18;61.41;100446.01;1667978;85;21090;-48
2021/08/06 05:12:33;;;;;;;16.35;8.38;;;;;;;31.17;61.59;100448.35;1665998;84;21035;-50
2021/08/06 05:14:59;;;;;;;11.53;7.53;;;;;;;31.18;61.72;100439.30;1667271;84;21086;-49
2021/08/06 05:17:27;;;;;;;14.13;7.78;;;;;;;31.19;61.84;100438.27;1665599;84;21036;-49
2021/08/06 05:19:53;;;;;;;18.00;8.95;;;;;;;31.20;62.04;100441.30;1663503;84;21039;-50
2021/08/06 05:22:20;;;;;;;14.15;7.80;;;;;;;31.22;62.21;100443.31;1668440;85;21016;-50
2021/08/06 05:24:47;;;;;;;13.98;8.00;;;;;;;31.23;62.32;100438.25;1670527;85;21026;-50
2021/08/06 05:27:15;;;;;;;12.73;7.40;;;;;;;31.26;62.33;100440.61;1644981;86;21578;-50
2021/08/06 05:29:42;;;;;;;15.35;8.15;;;;;;;31.27;62.23;100440.92;1631369;86;21152;-50
2021/08/06 05:32:09;;;;;;;15.78;8.43;;;;;;;31.31;62.26;100440.91;1642086;85;21046;-48
2021/08/06 05:34:38;;;;;;;20.92;8.33;;;;;;;31.37;62.26;100444.23;1647410;86;21035;-48
2021/08/06 05:37:05;;;;;;;17.85;9.00;;;;;;;31.42;62.18;100445.95;1663091;84;21010;-50
2021/08/06 05:39:32;;;;;;;14.10;8.45;;;;;;;31.46;61.31;100437.86;1671623;84;21596;-49
2021/08/06 05:41:59;;;;;;;19.82;9.65;;;;;;;31.49;61.24;100437.50;1659099;84;21047;-48
2021/08/06 05:44:27;;;;;;;23.12;9.18;;;;;;;31.51;61.45;100434.13;1665698;85;21125;-51
2021/08/06 05:46:53;;;;;;;16.30;8.45;;;;;;;31.52;61.50;100431.78;1647277;86;21070;-50
2021/08/06 05:49:21;;;;;;;13.05;8.28;;;;;;;31.54;61.48;100437.82;1651270;83;21058;-48
2021/08/06 05:51:48;;;;;;;15.58;8.88;;;;;;;31.55;61.49;100428.72;1680646;84;21029;-50
2021/08/06 05:54:16;;;;;;;16.57;8.53;;;;;;;31.57;61.52;100426.73;1680903;85;21017;-49
2021/08/06 05:56:42;;;;;;;14.55;8.40;;;;;;;31.59;61.38;100432.77;1701303;82;20990;-50
2021/08/06 05:59:10;;;;;;;17.45;8.70;;;;;;;31.62;61.38;100431.05;1726761;82;21053;-49
2021/08/06 06:01:38;;;;;;;15.03;8.40;;;;;;;31.65;61.37;100432.06;1728522;82;21450;-49
2021/08/06 06:04:15;;;;;;;24.10;8.73;;;;;;;31.69;61.19;100436.07;1674372;83;21024;-50
2021/08/06 06:06:47;;;;;;;19.62;7.80;;;;;;;31.70;61.07;100432.35;1670199;85;21114;-49
2021/08/06 06:09:14;;;;;;;16.48;8.70;;;;;;;31.74;61.28;100440.90;1678894;85;21374;-49
2021/08/06 06:11:41;;;;;;;20.55;8.10;;;;;;;31.75;61.25;100440.74;1662378;85;21166;-50
2021/08/06 06:14:09;;;;;;;15.35;8.70;;;;;;;31.76;61.17;100442.41;1673368;84;21487;-49
2021/08/06 06:16:35;;;;;;;14.43;8.08;;;;;;;31.78;61.28;100437.69;1681126;84;21011;-50
2021/08/06 06:19:03;;;;;;;12.60;7.78;;;;;;;31.81;61.26;100442.73;1677807;84;21596;-50
2021/08/06 06:21:30;;;;;;;22.07;8.78;;;;;;;31.83;61.25;100442.55;1669721;85;20999;-50
2021/08/06 06:23:57;;;;;;;15.28;8.50;;;;;;;31.83;61.16;100438.01;1668185;85;21189;-48
2021/08/06 06:26:24;;;;;;;15.38;8.58;;;;;;;31.83;61.05;100431.28;1655615;85;21015;-50
2021/08/06 06:28:52;;;;;;;10.18;7.92;;;;;;;31.81;60.79;100429.27;1664783;84;21064;-48
2021/08/06 06:31:19;;;;;;;13.45;7.85;;;;;;;31.79;60.54;100427.77;1665290;84;21022;-48
2021/08/06 06:33:46;;;;;;;16.52;8.63;;;;;;;31.78;60.72;100426.92;1679706;83;21018;-50
2021/08/06 06:36:14;;;;;;;20.02;9.40;;;;;;;31.77;60.86;100423.92;1665839;84;21126;-49
2021/08/06 06:38:41;;;;;;;13.13;8.20;;;;;;;31.77;60.81;100423.92;1656806;84;21059;-49
2021/08/06 06:41:08;;;;;;;15.75;8.30;;;;;;;31.78;60.70;100429.61;1686818;82;21009;-50
2021/08/06 06:43:36;;;;;;;16.82;8.53;;;;;;;31.80;60.87;100429.46;1726528;82;21529;-50
2021/08/06 06:46:03;;;;;;;12.35;7.62;;;;;;;31.81;61.09;100427.92;1730079;82;20980;-49
2021/08/06 06:48:30;;;;;;;24.37;8.65;;;;;;;31.85;61.20;100423.86;1727124;82;22421;-49
2021/08/06 06:50:59;;;;;;;15.45;7.65;;;;;;;31.89;61.07;100417.61;1739765;81;21509;-50
2021/08/06 06:53:26;;;;;;;16.55;8.18;;;;;;;31.91;61.17;100417.77;1732022;82;20996;-49
2021/08/06 06:55:53;;;;;;;17.35;8.43;;;;;;;31.93;60.96;100413.08;1688900;84;21201;-49
2021/08/06 06:58:21;;;;;;;15.98;8.63;;;;;;;31.97;60.89;100417.09;1694954;83;21018;-49
2021/08/06 07:00:49;;;;;;;20.48;9.23;;;;;;;32.01;60.90;100415.71;1689707;82;21066;-50
2021/08/06 07:03:18;;;;;;;18.25;7.92;;;;;;;32.08;60.83;100418.03;1672190;83;21542;-49
2021/08/06 07:05:45;;;;;;;20.57;7.75;;;;;;;32.14;60.64;100402.16;1693880;83;21078;-50
2021/08/06 07:08:12;;;;;;;10.45;7.62;;;;;;;32.17;60.02;100387.81;1686012;84;21080;-50
2021/08/06 07:10:39;;;;;;;13.35;7.40;;;;;;;32.16;59.85;100386.66;1697320;82;20966;-50
2021/08/06 07:13:06;;;;;;;11.50;6.83;;;;;;;32.14;59.89;100379.27;1694287;83;21151;-48
2021/08/06 07:15:33;;;;;;;19.90;11.25;;;;;;;32.09;59.88;100372.58;1687974;83;20978;-49
2021/08/06 07:18:00;;;;;;;15.68;9.08;;;;;;;32.08;60.18;100370.92;1682913;83;21073;-49
2021/08/06 07:20:28;;;;;;;14.07;7.60;;;;;;;32.10;60.33;100374.77;1678556;85;21468;-48
2021/08/06 07:22:56;;;;;;;23.98;10.65;;;;;;;32.14;60.12;100373.89;1669859;84;21030;-49
2021/08/06 07:25:22;;;;;;;16.35;8.03;;;;;;;32.18;60.40;100381.94;1665973;85;21067;-50
2021/08/06 07:27:52;;;;;;;14.30;7.87;;;;;;;32.22;59.98;100376.01;1672934;84;21102;-49
2021/08/06 07:30:18;;;;;;;21.33;14.85;;;;;;;32.31;59.67;100379.48;1676684;85;21093;-49
2021/08/06 07:32:46;;;;;;;14.05;8.45;;;;;;;32.41;59.60;100378.70;1677660;85;21039;-49
2021/08/06 07:35:14;;;;;;;16.87;7.83;;;;;;;32.51;59.48;100376.62;1676835;84;20980;-50
2021/08/06 07:37:42;;;;;;;12.88;7.28;;;;;;;32.59;59.35;100365.77;1662843;84;21550;-48
2021/08/06 07:40:11;;;;;;;13.80;8.20;;;;;;;32.69;59.12;100367.67;1659579;85;21007;-50
2021/08/06 07:42:39;;;;;;;19.57;7.92;;;;;;;32.76;58.49;100360.53;1675698;85;21019;-49
2021/08/06 07:45:07;;;;;;;15.35;6.78;;;;;;;32.82;58.59;100363.33;1665592;85;20983;-49
2021/08/06 07:47:34;;;;;;;19.48;8.43;;;;;;;32.86;58.32;100368.67;1655418;85;21551;-50
2021/08/06 07:50:01;;;;;;;15.08;7.65;;;;;;;32.92;58.29;100371.12;1661419;84;21088;-50
2021/08/06 07:52:29;;;;;;;15.85;7.60;;;;;;;32.97;57.98;100366.53;1670781;85;20994;-49
2021/08/06 07:54:56;;;;;;;10.85;6.95;;;;;;;33.01;58.03;100370.05;1725082;82;21042;-47
2021/08/06 07:57:23;;;;;;;10.40;6.12;;;;;;;33.08;57.89;100372.31;1666236;85;21072;-50
2021/08/06 07:59:50;;;;;;;12.25;6.58;;;;;;;33.14;57.58;100370.75;1665021;84;21589;-49
2021/08/06 08:02:21;;;;;;;12.85;6.33;;;;;;;33.19;57.48;100378.59;1664616;85;21066;-50
2021/08/06 08:04:46;;;;;;;11.22;6.95;;;;;;;33.26;56.95;100378.67;1676229;84;21055;-50
2021/08/06 08:07:13;;;;;;;13.80;6.78;;;;;;;33.31;57.08;100385.16;1670638;84;21078;-49
2021/08/06 08:09:42;;;;;;;13.03;6.85;;;;;;;33.37;56.89;100384.41;1679983;84;21070;-49
2021/08/06 08:12:09;;;;;;;9.45;6.92;;;;;;;33.40;56.87;100381.35;1672674;85;20972;-50
2021/08/06 08:14:37;;;;;;;12.35;7.10;;;;;;;33.42;56.75;100384.69;1672792;85;21018;-49
2021/08/06 08:17:04;;;;;;;12.18;7.42;;;;;;;33.43;56.33;100380.95;1664712;85;21530;-50
2021/08/06 08:19:31;;;;;;;13.55;7.25;;;;;;;33.41;56.19;100372.22;1674145;84;21046;-49
2021/08/06 08:21:58;;;;;;;13.90;9.18;;;;;;;33.38;55.98;100372.61;1676952;85;21522;-49
2021/08/06 08:24:24;;;;;;;12.15;7.30;;;;;;;33.33;56.17;100372.33;1674678;85;21007;-50
2021/08/06 08:26:53;;;;;;;13.45;6.90;;;;;;;33.27;56.43;100363.64;1670299;85;21071;-49
2021/08/06 08:29:20;;;;;;;9.25;6.67;;;;;;;33.26;56.48;100364.66;1649875;85;21054;-49
2021/08/06 08:31:48;;;;;;;12.58;6.42;;;;;;;33.24;56.55;100359.97;1646357;85;21022;-50
2021/08/06 08:34:15;;;;;;;13.25;6.75;;;;;;;33.23;56.62;100352.91;1721812;80;20963;-50
2021/08/06 08:36:43;;;;;;;12.18;6.90;;;;;;;33.23;56.91;100336.73;1735655;81;21025;-49
2021/08/06 08:39:10;;;;;;;19.75;12.73;;;;;;;33.21;57.08;100330.70;1725741;81;21041;-49
2021/08/06 08:41:38;;;;;;;14.25;9.40;;;;;;;33.23;56.88;100320.55;1718442;81;21543;-49
2021/08/06 08:44:06;;;;;;;15.72;10.00;;;;;;;33.24;56.80;100326.26;1717962;82;21006;-49
2021/08/06 08:46:33;;;;;;;13.20;7.03;;;;;;;33.24;56.91;100326.26;1723243;81;21060;-49
2021/08/06 08:49:01;;;;;;;14.47;9.30;;;;;;;33.25;56.67;100317.16;1699759;82;21537;-49
2021/08/06 08:51:30;;;;;;;35.13;29.18;;;;;;;33.22;56.68;100317.52;1724062;81;21146;-49
2021/08/06 08:54:00;;;;;;;17.73;10.72;;;;;;;33.21;56.75;100319.91;1706763;82;21077;-49
2021/08/06 08:56:29;;;;;;;20.05;8.03;;;;;;;33.16;57.12;100306.14;1688619;84;21011;-50
2021/08/06 08:58:56;;;;;;;17.62;7.58;;;;;;;33.18;57.16;100308.67;1670832;84;21097;-51
2021/08/06 09:01:24;;;;;;;17.30;8.90;;;;;;;33.16;57.42;100310.19;1728856;82;21832;-50
2021/08/06 09:03:52;;;;;;;14.30;9.43;;;;;;;33.24;57.29;100316.81;1731016;81;20987;-50
2021/08/06 09:06:38;;;;;;;9.83;7.33;;;;;;;33.28;57.04;100315.95;1673118;84;21054;-52
2021/08/06 09:09:24;;;;;;;15.45;7.72;;;;;;;33.37;56.51;100321.53;1643452;86;21140;-49
2021/08/06 09:12:12;;;;;;;40.75;32.70;;;;;;;33.42;56.46;100321.30;1614435;87;21071;-49
2021/08/06 09:14:50;;;;;;;;;;;;;;;33.45;56.46;100316.86;1620622;88;21165;-49
2021/08/06 09:17:17;;;;;;;13.53;8.25;;;;;;;33.51;56.44;100310.73;1630207;87;20177;-49
2021/08/06 09:19:58;;;;;;;13.00;7.50;;;;;;;33.54;55.96;100306.82;1607237;88;21091;-49
2021/08/06 09:22:27;;;;;;;;;;;;;;;33.55;55.97;100303.92;1543284;91;21108;-49
2021/08/06 09:25:10;;;;;;;16.05;6.95;;;;;;;33.62;55.89;100306.19;1551929;91;20126;-49
2021/08/06 09:27:44;;;;;;;13.90;7.12;;;;;;;33.65;56.04;100303.62;1531941;91;21569;-48
2021/08/06 09:30:35;;;;;;;15.75;7.50;;;;;;;33.70;55.78;100305.72;1552533;91;21499;-48
2021/08/06 09:33:02;;;;;;;;;;;;;;;33.73;55.87;100303.49;1515320;92;21155;-48
2021/08/06 09:35:32;;;;;;;17.07;7.20;;;;;;;33.80;55.62;100302.21;1532495;92;20167;-49
2021/08/06 09:38:00;;;;;;;16.42;8.03;;;;;;;33.82;55.65;100290.71;1553272;91;21079;-49
2021/08/06 09:40:31;;;;;;;16.00;10.18;;;;;;;33.84;55.60;100276.50;1554410;90;21628;-51
2021/08/06 09:43:06;;;;;;;18.45;7.55;;;;;;;33.87;55.64;100268.00;1517602;94;21155;-49
2021/08/06 09:45:38;;;;;;;14.47;7.85;;;;;;;33.92;55.50;100258.81;1517985;93;21090;-50
2021/08/06 09:48:05;;;;;;;14.00;10.30;;;;;;;33.94;55.36;100248.15;1533752;93;21071;-50
2021/08/06 09:50:44;;;;;;;14.63;10.35;;;;;;;33.98;55.26;100260.73;1531450;93;21720;-49
2021/08/06 09:53:12;;;;;;;20.10;8.35;;;;;;;34.01;55.26;100275.20;1522495;93;21055;-50
2021/08/06 09:55:43;;;;;;;12.98;7.83;;;;;;;34.02;54.95;100296.63;1522731;93;21166;-50
2021/08/06 09:58:12;;;;;;;12.03;7.03;;;;;;;34.05;55.00;100319.17;1532719;92;21629;-49
2021/08/06 10:00:44;;;;;;;18.50;8.70;;;;;;;34.05;54.90;100325.92;1544657;92;21158;-49
2021/08/06 10:03:27;;;;;;;13.55;7.45;;;;;;;34.04;54.88;100332.37;1550907;90;21143;-49
2021/08/06 10:06:14;;;;;;;11.40;7.25;;;;;;;34.05;54.88;100343.98;1558864;90;21152;-50
2021/08/06 10:08:43;;;;;;;11.03;7.10;;;;;;;34.05;54.75;100351.58;1497785;94;21145;-50
2021/08/06 10:11:10;;;;;;;14.05;7.10;;;;;;;34.05;54.73;100350.73;1502817;94;21054;-49
2021/08/06 10:13:39;;;;;;;13.62;7.97;;;;;;;34.06;54.71;100348.37;1485253;95;21221;-49
2021/08/06 10:16:06;;;;;;;14.98;8.10;;;;;;;34.07;54.75;100344.63;1487450;95;21049;-51
2021/08/06 10:18:33;;;;;;;17.37;7.47;;;;;;;34.08;54.77;100343.10;1468661;96;21165;-49
2021/08/06 10:21:01;;;;;;;11.33;8.35;;;;;;;34.06;54.84;100335.71;1505424;94;21084;-50
2021/08/06 10:23:28;;;;;;;17.80;7.72;;;;;;;34.06;55.16;100333.52;1492122;95;21141;-51
2021/08/06 10:25:55;;;;;;;14.65;8.98;;;;;;;34.02;54.94;100319.58;1466179;97;21590;-50
2021/08/06 10:28:22;;;;;;;20.43;10.85;;;;;;;34.02;54.75;100305.23;1460572;96;21066;-50
2021/08/06 10:30:48;;;;;;;15.25;9.38;;;;;;;33.99;54.79;100297.48;1458647;96;21092;-50
2021/08/06 10:33:26;;;;;;;12.98;10.03;;;;;;;33.94;55.05;100287.80;1501020;94;21144;-51
2021/08/06 10:36:06;;;;;;;18.65;9.93;;;;;;;33.89;55.12;100275.39;1502152;91;21212;-50
2021/08/06 10:38:39;;;;;;;24.60;14.38;;;;;;;33.84;55.29;100289.46;1552161;90;21122;-49
2021/08/06 10:41:19;;;;;;;17.40;14.33;;;;;;;33.81;55.35;100310.61;1552827;91;21116;-49
2021/08/06 10:44:03;;;;;;;20.43;10.98;;;;;;;33.77;55.84;100315.58;1557807;91;21054;-50
2021/08/06 10:46:58;;;;;;;14.75;9.20;;;;;;;33.77;56.08;100291.28;1559755;90;21576;-50
2021/08/06 10:49:27;;;;;;;17.75;11.40;;;;;;;33.81;55.82;100294.42;1513968;93;21123;-51
2021/08/06 10:52:23;;;;;;;15.83;10.08;;;;;;;33.80;55.62;100312.47;1530486;91;21064;-51
2021/08/06 10:54:49;;;;;;;12.33;7.85;;;;;;;33.79;55.83;100315.37;1557368;90;21588;-50
2021/08/06 10:57:21;;;;;;;12.50;7.92;;;;;;;33.77;55.88;100322.83;1538538;91;21570;-50
2021/08/06 10:59:48;;;;;;;23.27;17.55;;;;;;;33.76;56.10;100319.28;1563976;90;21067;-49
2021/08/06 11:02:37;;;;;;;29.70;20.75;;;;;;;33.78;56.16;100313.72;1585564;89;21101;-49
2021/08/06 11:05:26;;;;;;;16.90;10.15;;;;;;;33.81;55.99;100313.31;1553981;88;21025;-50
2021/08/06 11:07:52;;;;;;;17.32;7.92;;;;;;;33.82;55.66;100320.40;1580221;88;21135;-49
2021/08/06 11:10:46;;;;;;;11.75;7.60;;;;;;;33.79;55.82;100323.47;1570430;88;21617;-50
2021/08/06 11:13:51;;;;;;;11.40;7.65;;;;;;;33.77;55.83;100322.83;1563224;90;21622;-49
2021/08/06 11:16:17;;;;;;;22.45;15.25;;;;;;;33.74;55.98;100321.87;1553938;91;21531;-50
2021/08/06 11:18:46;;;;;;;15.63;11.68;;;;;;;33.74;56.09;100320.53;1562670;89;21077;-50
2021/08/06 11:21:15;;;;;;;14.00;8.00;;;;;;;33.76;55.99;100321.17;1571262;90;21115;-50
2021/08/06 11:23:42;;;;;;;13.03;7.80;;;;;;;33.77;55.87;100305.28;1556080;90;21067;-51
2021/08/06 11:26:12;;;;;;;10.20;8.20;;;;;;;33.78;55.80;100312.37;1565062;90;21113;-50
2021/08/06 11:28:39;;;;;;;11.90;7.95;;;;;;;33.77;55.81;100322.83;1522586;92;21143;-50
2021/08/06 11:31:17;;;;;;;9.43;7.42;;;;;;;33.76;55.80;100322.52;1514732;93;21049;-50